Time;durP1;ratioP1;P1;durP2;ratioP2;P2;SDS_P1;SDS_P2;PMS_P1;PMS_P2;Temp;Humidity;BMP_temperature;BMP_pressure;BME280_temperature;BME280_humidity;BME280_pressure;Samples;Min_cycle;Max_cycle;Signal;HPM_P1;HPM_P2
2023/04/08 00:00:34;;;;;;;43.13;24.27;;;1.70;99.90;;;;;;4958115;28;20023;-76
2023/04/08 00:03:01;;;;;;;46.33;25.08;;;1.60;99.90;;;;;;4975375;28;20029;-75
2023/04/08 00:05:26;;;;;;;43.80;23.80;;;1.60;99.90;;;;;;4958011;28;20041;-76
2023/04/08 00:07:52;;;;;;;45.83;24.30;;;1.60;99.90;;;;;;4958045;28;20115;-76
2023/04/08 00:10:18;;;;;;;43.25;23.48;;;1.60;99.90;;;;;;4975382;28;20110;-76
2023/04/08 00:12:44;;;;;;;47.40;25.25;;;1.50;99.90;;;;;;4975154;28;20461;-76
2023/04/08 00:15:10;;;;;;;43.60;23.65;;;1.50;99.90;;;;;;4975100;28;20053;-75
2023/04/08 00:17:36;;;;;;;51.15;25.55;;;1.50;99.90;;;;;;4975006;28;20035;-75
2023/04/08 00:20:01;;;;;;;43.00;23.35;;;1.50;99.90;;;;;;4975066;28;20027;-77
2023/04/08 00:22:27;;;;;;;39.90;21.65;;;1.40;99.90;;;;;;4957679;28;20540;-78
2023/04/08 00:24:53;;;;;;;46.40;23.45;;;1.40;99.90;;;;;;4957888;28;20023;-76
2023/04/08 00:27:18;;;;;;;42.10;23.13;;;1.40;99.90;;;;;;4975108;28;20038;-76
2023/04/08 00:29:44;;;;;;;44.85;23.02;;;1.40;99.90;;;;;;4974961;28;20077;-76
2023/04/08 00:32:09;;;;;;;41.85;24.27;;;1.30;99.90;;;;;;4957550;28;20129;-76
2023/04/08 00:34:36;;;;;;;37.80;20.35;;;1.30;99.90;;;;;;4957572;28;20421;-77
2023/04/08 00:37:02;;;;;;;36.70;19.17;;;1.30;99.90;;;;;;4957593;28;20030;-76
2023/04/08 00:39:27;;;;;;;30.23;18.02;;;1.30;99.90;;;;;;4974695;28;20029;-76
2023/04/08 00:41:53;;;;;;;36.28;19.08;;;1.20;99.90;;;;;;4974760;28;20031;-76
2023/04/08 00:44:19;;;;;;;37.90;21.65;;;1.20;99.90;;;;;;4974774;28;20097;-76
2023/04/08 00:46:45;;;;;;;42.55;23.88;;;1.20;99.90;;;;;;4957511;28;20051;-76
2023/04/08 00:49:11;;;;;;;46.70;24.02;;;1.20;99.90;;;;;;4957175;28;20021;-76
2023/04/08 00:51:36;;;;;;;43.00;22.17;;;1.20;99.90;;;;;;4974561;28;20026;-76
2023/04/08 00:54:03;;;;;;;43.05;23.58;;;1.20;99.90;;;;;;4974579;28;20042;-76
2023/04/08 00:56:30;;;;;;;39.55;22.35;;;1.20;99.90;;;;;;4974639;28;20043;-76
2023/04/08 00:58:56;;;;;;;34.25;20.65;;;1.10;99.90;;;;;;4974700;28;20023;-76
2023/04/08 01:02:05;;;;;;;42.90;23.63;;;1.10;99.90;;;;;;4957280;28;20030;-76
2023/04/08 01:04:59;;;;;;;45.88;25.33;;;1.00;99.90;;;;;;4880582;29;20060;-76
2023/04/08 01:07:30;;;;;;;38.83;21.30;;;1.00;99.90;;;;;;4956865;28;20035;-76
2023/04/08 01:10:01;;;;;;;38.92;21.90;;;1.00;99.90;;;;;;4974553;28;20027;-75
2023/04/08 01:12:30;;;;;;;42.25;21.15;;;1.00;99.90;;;;;;4973077;28;20031;-76
2023/04/08 01:15:02;;;;;;;43.42;22.63;;;1.00;99.90;;;;;;4957012;28;20073;-75
2023/04/08 01:17:29;;;;;;;40.65;21.92;;;1.00;99.90;;;;;;4957178;28;20026;-75
2023/04/08 01:19:58;;;;;;;41.88;22.17;;;0.90;99.90;;;;;;4956989;28;20389;-74
2023/04/08 01:22:48;;;;;;;46.67;23.85;;;0.90;99.90;;;;;;4974285;28;20035;-75
2023/04/08 01:25:26;;;;;;;42.40;23.33;;;0.90;99.90;;;;;;4974456;28;20023;-76
2023/04/08 01:27:55;;;;;;;43.78;22.90;;;0.90;99.90;;;;;;4957037;28;20027;-75
2023/04/08 01:30:23;;;;;;;44.53;22.00;;;0.90;99.90;;;;;;4974246;28;20031;-75
2023/04/08 01:32:51;;;;;;;37.20;20.75;;;0.80;99.90;;;;;;4956846;28;20070;-76
2023/04/08 01:35:17;;;;;;;41.58;21.00;;;0.80;99.90;;;;;;4974339;28;20018;-76
2023/04/08 01:37:45;;;;;;;40.65;22.08;;;0.80;99.90;;;;;;4974056;28;20050;-75
2023/04/08 01:40:12;;;;;;;43.15;22.88;;;0.80;99.90;;;;;;4974472;28;20046;-75
2023/04/08 01:42:38;;;;;;;41.22;22.42;;;0.80;99.90;;;;;;4956643;28;20029;-75
2023/04/08 01:45:05;;;;;;;44.75;21.08;;;0.80;99.90;;;;;;4974281;28;20027;-75
2023/04/08 01:47:30;;;;;;;39.65;20.88;;;0.80;99.90;;;;;;4974002;28;20027;-75
2023/04/08 01:49:58;;;;;;;42.50;19.90;;;0.80;99.90;;;;;;4956826;28;20081;-75
2023/04/08 01:52:25;;;;;;;34.30;20.08;;;0.80;99.90;;;;;;4974077;28;20034;-76
2023/04/08 01:54:51;;;;;;;38.33;19.95;;;0.80;99.90;;;;;;4974162;28;20366;-75
2023/04/08 01:57:23;;;;;;;43.75;21.85;;;0.80;99.90;;;;;;4974164;28;20477;-77
2023/04/08 01:59:51;;;;;;;45.20;22.25;;;0.90;99.90;;;;;;4974043;28;20385;-76
2023/04/08 02:02:20;;;;;;;43.28;22.25;;;0.90;99.90;;;;;;4958862;28;20111;-76
2023/04/08 02:04:45;;;;;;;38.00;20.00;;;0.90;99.90;;;;;;4977586;28;20023;-75
2023/04/08 02:07:11;;;;;;;42.20;21.77;;;0.90;99.90;;;;;;4960296;28;20019;-75
2023/04/08 02:09:37;;;;;;;40.45;19.98;;;0.90;99.90;;;;;;4977505;28;20070;-76
2023/04/08 02:12:03;;;;;;;41.95;20.67;;;0.90;99.90;;;;;;4960083;28;20122;-76
2023/04/08 02:14:29;;;;;;;37.75;19.50;;;0.90;99.90;;;;;;4977555;28;20023;-75
2023/04/08 02:17:16;;;;;;;41.22;21.33;;;0.90;99.90;;;;;;4960111;28;20023;-75
2023/04/08 02:19:51;;;;;;;39.03;18.73;;;0.90;99.90;;;;;;4977356;28;20481;-75
2023/04/08 02:22:30;;;;;;;41.85;18.60;;;0.90;99.90;;;;;;4977556;28;20051;-77
2023/04/08 02:24:58;;;;;;;39.13;20.33;;;0.90;99.90;;;;;;4959905;28;20461;-75
2023/04/08 02:27:28;;;;;;;39.75;19.50;;;0.90;99.90;;;;;;4959858;28;20117;-75
2023/04/08 02:29:55;;;;;;;44.45;18.73;;;0.90;99.90;;;;;;4959821;28;20142;-75
2023/04/08 02:32:24;;;;;;;50.88;21.95;;;0.90;99.90;;;;;;4959634;28;20130;-76
2023/04/08 02:34:50;;;;;;;43.78;21.23;;;0.90;99.90;;;;;;4977269;28;20042;-75
2023/04/08 02:37:16;;;;;;;42.25;19.90;;;0.90;99.90;;;;;;4977090;28;20019;-75
2023/04/08 02:39:42;;;;;;;38.70;18.25;;;0.90;99.90;;;;;;4976959;28;20034;-75
2023/04/08 02:42:07;;;;;;;37.38;16.83;;;0.90;99.90;;;;;;4977046;28;20059;-76
2023/04/08 02:44:33;;;;;;;42.53;19.80;;;0.90;99.90;;;;;;4976862;28;20427;-76
2023/04/08 02:46:58;;;;;;;45.00;21.52;;;0.90;99.90;;;;;;4959632;28;20023;-75
2023/04/08 02:49:24;;;;;;;48.15;22.15;;;0.90;99.90;;;;;;4959471;28;20031;-75
2023/04/08 02:51:49;;;;;;;40.88;20.63;;;0.90;99.90;;;;;;4976809;28;20019;-75
2023/04/08 02:54:15;;;;;;;45.78;23.90;;;0.90;99.90;;;;;;4976664;28;20400;-75
2023/04/08 02:56:41;;;;;;;52.25;21.88;;;1.00;99.90;;;;;;4959427;28;20027;-75
2023/04/08 02:59:06;;;;;;;46.03;21.65;;;1.00;99.90;;;;;;4959315;28;20480;-75
2023/04/08 03:01:32;;;;;;;46.80;21.98;;;1.00;99.90;;;;;;4976521;28;20038;-76
2023/04/08 03:03:58;;;;;;;43.97;20.95;;;1.00;99.90;;;;;;4976680;28;20026;-75
2023/04/08 03:06:23;;;;;;;44.35;21.65;;;1.00;99.90;;;;;;4976597;28;20030;-75
2023/04/08 03:08:49;;;;;;;39.13;20.48;;;1.00;99.90;;;;;;4976454;28;20034;-75
2023/04/08 03:11:14;;;;;;;40.97;19.92;;;1.00;99.90;;;;;;4976466;28;20051;-75
2023/04/08 03:13:40;;;;;;;39.90;20.65;;;1.00;99.90;;;;;;4975721;28;20381;-76
2023/04/08 03:16:06;;;;;;;47.90;22.10;;;1.00;99.90;;;;;;4976301;28;20085;-75
2023/04/08 03:18:32;;;;;;;45.40;21.65;;;1.00;99.90;;;;;;4958918;28;20023;-75
2023/04/08 03:20:58;;;;;;;47.63;22.52;;;1.00;99.90;;;;;;4975973;28;20039;-75
2023/04/08 03:23:23;;;;;;;55.70;22.80;;;1.10;99.90;;;;;;4976092;28;20085;-75
2023/04/08 03:25:49;;;;;;;45.40;21.60;;;1.10;99.90;;;;;;4958942;28;20403;-76
2023/04/08 03:28:14;;;;;;;41.85;21.33;;;1.10;99.90;;;;;;4976061;28;20058;-76
2023/04/08 03:30:40;;;;;;;40.60;22.33;;;1.10;99.90;;;;;;4976107;28;20061;-75
2023/04/08 03:33:06;;;;;;;40.55;19.00;;;1.20;99.90;;;;;;4958628;28;20039;-75
2023/04/08 03:35:33;;;;;;;44.40;20.25;;;1.20;99.90;;;;;;4955056;28;20024;-75
2023/04/08 03:37:58;;;;;;;43.90;20.30;;;1.20;99.90;;;;;;4955345;28;20056;-76
2023/04/08 03:40:24;;;;;;;46.72;21.50;;;1.20;99.90;;;;;;4995191;28;20061;-76
2023/04/08 03:42:49;;;;;;;48.17;19.63;;;1.20;99.90;;;;;;4977368;28;20464;-76
2023/04/08 03:45:15;;;;;;;33.60;19.23;;;1.20;99.90;;;;;;4979051;28;20114;-75
2023/04/08 03:47:41;;;;;;;41.42;20.33;;;1.20;99.90;;;;;;4988293;28;20019;-74
2023/04/08 03:50:07;;;;;;;38.85;20.08;;;1.20;99.90;;;;;;4994995;28;20033;-76
2023/04/08 03:52:32;;;;;;;39.88;20.67;;;1.30;99.90;;;;;;4988355;28;20039;-74
2023/04/08 03:54:58;;;;;;;45.78;20.35;;;1.30;99.90;;;;;;4977444;28;20460;-75
2023/04/08 03:57:23;;;;;;;47.13;20.95;;;1.30;99.90;;;;;;4967732;28;20029;-75
2023/04/08 03:59:49;;;;;;;50.25;23.67;;;1.30;99.90;;;;;;4991245;28;20461;-76
2023/04/08 04:02:14;;;;;;;47.78;21.60;;;1.30;99.90;;;;;;4974078;28;20058;-75
2023/04/08 04:04:40;;;;;;;42.80;21.80;;;1.30;99.90;;;;;;4977357;28;20488;-75
2023/04/08 04:07:06;;;;;;;44.45;21.92;;;1.30;99.90;;;;;;4977401;28;20078;-76
2023/04/08 04:09:31;;;;;;;39.55;19.20;;;1.30;99.90;;;;;;4994659;28;20500;-75
2023/04/08 04:11:57;;;;;;;39.97;20.20;;;1.40;99.90;;;;;;4994627;28;20030;-75
2023/04/08 04:14:23;;;;;;;40.88;20.20;;;1.40;99.90;;;;;;4994547;28;20026;-76
2023/04/08 04:16:48;;;;;;;39.22;20.63;;;1.30;99.90;;;;;;4994609;28;20030;-76
2023/04/08 04:19:14;;;;;;;37.33;19.63;;;1.40;99.90;;;;;;4974138;28;20511;-76
2023/04/08 04:21:40;;;;;;;35.85;18.92;;;1.40;99.90;;;;;;4957643;28;20125;-76
2023/04/08 04:24:05;;;;;;;31.00;17.40;;;1.40;99.90;;;;;;4974486;28;20027;-74
2023/04/08 04:26:31;;;;;;;36.50;17.30;;;1.40;99.90;;;;;;4957739;28;20081;-76
2023/04/08 04:28:56;;;;;;;37.10;18.33;;;1.40;99.90;;;;;;4974937;28;20477;-75
2023/04/08 04:31:26;;;;;;;32.00;17.67;;;1.40;99.90;;;;;;4939808;28;20114;-75
2023/04/08 04:33:53;;;;;;;30.35;16.23;;;1.50;99.90;;;;;;4955466;28;20082;-75
2023/04/08 04:36:18;;;;;;;35.03;16.92;;;1.50;99.90;;;;;;4955555;29;20039;-75
2023/04/08 04:38:44;;;;;;;33.17;18.02;;;1.50;99.90;;;;;;4953592;28;20023;-75
2023/04/08 04:41:10;;;;;;;34.80;17.38;;;1.50;99.90;;;;;;4955497;29;20031;-75
2023/04/08 04:43:36;;;;;;;35.53;18.95;;;1.50;99.90;;;;;;4955320;28;20489;-76
2023/04/08 04:46:05;;;;;;;37.92;18.55;;;1.50;99.90;;;;;;4954170;29;20019;-76
2023/04/08 04:48:31;;;;;;;34.35;18.48;;;1.50;99.90;;;;;;4955246;28;20058;-75
2023/04/08 04:51:00;;;;;;;31.23;17.35;;;1.50;99.90;;;;;;4962375;28;20030;-75
2023/04/08 04:53:25;;;;;;;34.03;17.10;;;1.50;99.90;;;;;;4990545;28;20109;-75
2023/04/08 04:55:51;;;;;;;32.53;16.05;;;1.60;99.90;;;;;;4975913;28;20460;-75
2023/04/08 04:58:18;;;;;;;38.50;20.02;;;1.60;99.90;;;;;;4993902;28;20026;-76
2023/04/08 05:00:45;;;;;;;31.50;17.23;;;1.60;99.90;;;;;;4976381;28;20082;-76
2023/04/08 05:03:10;;;;;;;35.22;18.95;;;1.60;99.90;;;;;;4993892;28;20026;-75
2023/04/08 05:05:36;;;;;;;36.28;19.88;;;1.60;99.90;;;;;;4976346;28;20069;-75
2023/04/08 05:08:01;;;;;;;36.47;18.95;;;1.60;99.90;;;;;;4986220;28;20492;-74
2023/04/08 05:10:27;;;;;;;35.47;18.70;;;1.60;99.90;;;;;;4965602;28;20107;-74
2023/04/08 05:12:53;;;;;;;37.67;19.25;;;1.60;99.90;;;;;;4960835;28;20030;-74
2023/04/08 05:15:18;;;;;;;36.33;18.95;;;1.70;99.90;;;;;;4984486;28;20391;-74
2023/04/08 05:17:44;;;;;;;41.65;21.48;;;1.70;99.90;;;;;;4981685;28;20030;-75
2023/04/08 05:20:10;;;;;;;39.95;20.58;;;1.80;99.90;;;;;;4983566;28;20023;-75
2023/04/08 05:22:35;;;;;;;37.20;18.60;;;1.80;99.90;;;;;;4987239;28;20400;-75
2023/04/08 05:25:01;;;;;;;37.03;20.00;;;1.70;99.90;;;;;;4966104;28;20029;-75
2023/04/08 05:27:27;;;;;;;38.67;19.08;;;1.80;99.90;;;;;;4958683;28;20014;-75
2023/04/08 05:29:52;;;;;;;36.83;19.38;;;1.70;99.90;;;;;;4955937;28;20460;-74
2023/04/08 05:32:18;;;;;;;29.73;16.02;;;1.80;99.90;;;;;;4982889;28;20030;-75
2023/04/08 05:34:44;;;;;;;30.02;17.25;;;1.70;99.90;;;;;;4993428;28;20105;-75
2023/04/08 05:37:10;;;;;;;32.20;18.08;;;1.70;99.90;;;;;;4959138;28;20027;-74
2023/04/08 05:39:35;;;;;;;34.35;17.58;;;1.80;99.90;;;;;;4985359;28;20109;-76
2023/04/08 05:42:02;;;;;;;31.10;16.42;;;1.80;99.90;;;;;;4987198;28;20023;-76
2023/04/08 05:44:27;;;;;;;35.83;17.77;;;1.80;99.90;;;;;;4962642;28;20508;-76
2023/04/08 05:46:54;;;;;;;33.97;19.45;;;1.80;99.90;;;;;;4979727;28;20026;-74
2023/04/08 05:49:20;;;;;;;27.10;15.55;;;1.80;99.90;;;;;;4976185;28;20030;-75
2023/04/08 05:51:49;;;;;;;27.52;15.57;;;1.90;99.90;;;;;;4977612;28;20027;-75
2023/04/08 05:54:15;;;;;;;31.48;19.65;;;1.90;99.90;;;;;;4977106;28;20031;-73
2023/04/08 05:56:40;;;;;;;32.88;17.15;;;1.90;99.90;;;;;;4959574;28;20507;-73
2023/04/08 05:59:06;;;;;;;28.08;15.95;;;2.00;99.90;;;;;;4977485;28;20173;-74
2023/04/08 06:01:31;;;;;;;29.13;16.60;;;2.00;99.90;;;;;;4977382;28;20027;-74
2023/04/08 06:03:57;;;;;;;29.85;16.23;;;2.00;99.90;;;;;;4959793;28;20023;-73
2023/04/08 06:06:24;;;;;;;32.53;18.90;;;2.00;99.90;;;;;;4958343;28;20045;-73
2023/04/08 06:08:50;;;;;;;37.22;19.80;;;2.10;99.90;;;;;;4976447;28;20489;-74
2023/04/08 06:11:16;;;;;;;33.28;18.20;;;2.20;99.90;;;;;;4975782;28;20019;-73
2023/04/08 06:13:41;;;;;;;32.20;17.05;;;2.20;99.90;;;;;;4959817;28;20038;-76
2023/04/08 06:16:12;;;;;;;28.73;15.88;;;2.10;99.90;;;;;;4977045;28;20055;-74
2023/04/08 06:18:38;;;;;;;26.45;14.77;;;2.20;99.90;;;;;;4977179;28;20467;-74
2023/04/08 06:21:04;;;;;;;27.52;16.50;;;2.20;99.90;;;;;;4977053;28;20054;-74
2023/04/08 06:23:30;;;;;;;27.30;16.83;;;2.30;99.90;;;;;;4977055;28;20031;-74
2023/04/08 06:25:56;;;;;;;42.88;21.23;;;2.40;99.90;;;;;;4959945;28;20015;-74
2023/04/08 06:28:21;;;;;;;33.85;17.58;;;2.40;99.90;;;;;;4959413;28;20026;-73
2023/04/08 06:30:47;;;;;;;25.95;16.60;;;2.40;99.90;;;;;;4977082;28;20030;-76
2023/04/08 06:33:12;;;;;;;33.63;18.23;;;2.50;99.90;;;;;;4959467;28;20121;-77
2023/04/08 06:35:38;;;;;;;34.33;18.80;;;2.60;99.90;;;;;;4959574;28;20555;-76
2023/04/08 06:38:03;;;;;;;28.25;17.05;;;2.70;99.90;;;;;;4976713;28;20090;-76
2023/04/08 06:40:29;;;;;;;28.45;16.55;;;2.60;99.90;;;;;;4976801;28;20127;-76
2023/04/08 06:42:55;;;;;;;32.22;17.35;;;2.60;99.90;;;;;;4959398;28;20101;-76
2023/04/08 06:45:20;;;;;;;30.77;17.75;;;2.60;99.90;;;;;;4959280;28;20073;-77
2023/04/08 06:47:46;;;;;;;27.00;17.58;;;2.70;99.90;;;;;;4976108;28;20031;-77
2023/04/08 06:50:12;;;;;;;28.13;17.20;;;2.60;99.90;;;;;;4976526;28;20106;-76
2023/04/08 06:52:37;;;;;;;30.15;15.18;;;2.60;99.90;;;;;;4959011;28;20042;-77
2023/04/08 06:55:03;;;;;;;31.13;16.85;;;2.70;99.90;;;;;;4959217;28;20023;-76
2023/04/08 06:57:29;;;;;;;30.30;18.95;;;2.70;99.90;;;;;;4975143;28;20073;-76
2023/04/08 06:59:55;;;;;;;50.35;25.95;;;2.70;99.90;;;;;;4976477;28;20042;-76
2023/04/08 07:02:21;;;;;;;39.58;21.33;;;2.80;99.90;;;;;;4959016;28;20030;-75
2023/04/08 07:04:47;;;;;;;39.28;21.10;;;2.80;99.90;;;;;;4976355;28;20019;-76
2023/04/08 07:07:13;;;;;;;32.58;18.48;;;2.90;99.90;;;;;;4959025;28;20516;-77
2023/04/08 07:09:40;;;;;;;31.38;18.60;;;3.00;99.90;;;;;;4958824;28;20023;-76
2023/04/08 07:12:06;;;;;;;32.00;18.08;;;3.00;99.90;;;;;;4976102;28;20109;-77
2023/04/08 07:14:31;;;;;;;32.95;19.25;;;3.10;99.90;;;;;;4976048;28;20058;-77
2023/04/08 07:16:57;;;;;;;27.95;16.75;;;3.30;99.90;;;;;;4958843;28;20081;-75
2023/04/08 07:19:23;;;;;;;28.80;16.88;;;3.40;99.90;;;;;;4976039;28;20038;-75
2023/04/08 07:21:49;;;;;;;27.80;15.88;;;3.60;99.90;;;;;;4976110;28;20126;-76
2023/04/08 07:24:14;;;;;;;28.25;17.05;;;3.70;99.90;;;;;;4958605;28;20709;-76
2023/04/08 07:26:40;;;;;;;24.17;15.85;;;3.70;99.90;;;;;;4958609;28;20023;-76
2023/04/08 07:29:06;;;;;;;24.20;13.68;;;3.90;99.90;;;;;;4958485;28;20081;-76
2023/04/08 07:31:32;;;;;;;22.17;14.50;;;3.90;99.90;;;;;;4975861;28;20030;-77
2023/04/08 07:33:57;;;;;;;26.77;14.80;;;3.90;99.90;;;;;;4975567;28;20153;-75
2023/04/08 07:36:23;;;;;;;26.42;14.80;;;3.90;99.90;;;;;;4974380;28;20485;-76
2023/04/08 07:38:49;;;;;;;24.95;15.35;;;3.90;99.90;;;;;;4938838;28;20019;-75
2023/04/08 07:41:14;;;;;;;28.95;15.88;;;3.70;99.90;;;;;;4954655;29;20398;-76
2023/04/08 07:43:40;;;;;;;29.95;16.13;;;3.80;99.90;;;;;;4952244;28;20029;-77
2023/04/08 07:46:06;;;;;;;28.20;15.25;;;3.80;99.90;;;;;;4954614;29;20498;-78
2023/04/08 07:48:33;;;;;;;28.85;17.00;;;3.80;99.90;;;;;;4954556;28;20034;-78
2023/04/08 07:51:06;;;;;;;28.75;15.93;;;3.80;99.90;;;;;;4972203;28;20031;-78
2023/04/08 07:53:32;;;;;;;28.10;17.77;;;3.70;99.90;;;;;;4972721;28;20065;-76
2023/04/08 07:55:58;;;;;;;28.13;16.27;;;3.80;99.90;;;;;;4972800;28;20073;-78
2023/04/08 07:58:23;;;;;;;22.25;14.15;;;3.70;99.90;;;;;;4971249;28;20027;-77
2023/04/08 08:00:49;;;;;;;25.50;15.00;;;3.70;99.90;;;;;;4973545;28;20026;-76
2023/04/08 08:03:15;;;;;;;24.63;13.20;;;3.60;99.90;;;;;;4973522;28;20113;-78
2023/04/08 08:05:41;;;;;;;22.60;14.65;;;3.60;99.90;;;;;;4973682;28;20031;-75
2023/04/08 08:08:06;;;;;;;24.52;14.77;;;3.70;99.90;;;;;;4973350;28;20034;-75
2023/04/08 08:10:32;;;;;;;24.73;14.63;;;3.90;99.90;;;;;;4974323;28;20033;-77
2023/04/08 08:12:58;;;;;;;24.08;14.38;;;4.20;99.90;;;;;;4973999;28;20078;-76
2023/04/08 08:15:24;;;;;;;28.60;16.45;;;4.50;99.90;;;;;;4974453;28;20061;-76
2023/04/08 08:17:49;;;;;;;25.25;15.93;;;4.70;99.90;;;;;;4974325;28;20043;-77
2023/04/08 08:20:15;;;;;;;28.73;17.60;;;4.70;99.90;;;;;;4974140;28;20058;-78
2023/04/08 08:22:41;;;;;;;26.65;15.05;;;4.60;99.90;;;;;;4956570;28;20529;-77
2023/04/08 08:25:08;;;;;;;29.65;18.60;;;4.20;99.90;;;;;;4974422;28;20031;-77
2023/04/08 08:27:35;;;;;;;22.67;14.60;;;4.30;99.90;;;;;;4973330;28;20096;-77
2023/04/08 08:30:02;;;;;;;23.77;13.70;;;4.20;99.90;;;;;;4974512;28;20019;-75
2023/04/08 08:32:27;;;;;;;25.45;16.40;;;4.20;99.90;;;;;;4973876;28;20054;-77
2023/04/08 08:34:53;;;;;;;24.58;14.60;;;4.40;99.90;;;;;;4974416;28;20023;-77
2023/04/08 08:37:19;;;;;;;27.95;15.82;;;4.30;99.90;;;;;;4976226;28;20031;-76
2023/04/08 08:39:45;;;;;;;24.08;15.95;;;4.40;99.90;;;;;;4974058;28;20031;-74
2023/04/08 08:42:24;;;;;;;24.70;15.73;;;4.70;99.90;;;;;;4956644;28;20109;-75
2023/04/08 08:44:50;;;;;;;23.02;14.45;;;4.70;99.90;;;;;;4973403;28;20030;-75
2023/04/08 08:47:17;;;;;;;29.52;15.93;;;4.70;99.90;;;;;;4956329;28;20037;-77
2023/04/08 08:49:44;;;;;;;24.02;15.18;;;4.70;99.90;;;;;;4973142;28;20038;-78
2023/04/08 08:52:14;;;;;;;28.08;16.05;;;4.70;99.90;;;;;;4973655;28;20034;-76
2023/04/08 08:54:39;;;;;;;28.92;17.77;;;4.60;99.90;;;;;;4973381;28;20023;-76
2023/04/08 08:57:18;;;;;;;31.02;15.73;;;4.70;99.90;;;;;;4973465;28;20075;-76
2023/04/08 08:59:47;;;;;;;25.27;16.10;;;4.60;99.90;;;;;;4973569;28;20030;-76
2023/04/08 09:02:25;;;;;;;29.05;16.17;;;4.60;99.90;;;;;;4972283;28;20389;-77
2023/04/08 09:05:02;;;;;;;28.58;15.75;;;4.60;99.90;;;;;;4973590;28;20615;-78
2023/04/08 09:07:34;;;;;;;24.63;15.63;;;4.70;99.90;;;;;;4973103;28;20031;-78
2023/04/08 09:10:00;;;;;;;27.55;16.42;;;4.70;99.90;;;;;;4956149;28;20030;-75
2023/04/08 09:12:27;;;;;;;29.23;17.80;;;4.70;99.90;;;;;;4972399;28;20039;-75
2023/04/08 09:15:07;;;;;;;26.77;16.38;;;4.80;99.90;;;;;;4972068;28;20113;-76
2023/04/08 09:17:37;;;;;;;25.75;15.43;;;4.80;99.90;;;;;;4973050;28;20046;-77
2023/04/08 09:20:10;;;;;;;27.38;15.95;;;4.90;99.90;;;;;;4972931;28;20031;-76
2023/04/08 09:22:58;;;;;;;28.20;17.60;;;5.00;99.90;;;;;;4973988;28;20027;-76
2023/04/08 09:25:31;;;;;;;30.63;17.83;;;5.00;99.90;;;;;;4975064;28;20050;-75
2023/04/08 09:27:58;;;;;;;29.25;17.48;;;5.20;99.90;;;;;;4974327;28;20035;-75
2023/04/08 09:30:25;;;;;;;24.75;15.30;;;5.30;99.90;;;;;;4973888;28;20041;-73
2023/04/08 09:33:05;;;;;;;25.52;14.40;;;5.40;99.90;;;;;;4956414;28;20081;-73
2023/04/08 09:35:31;;;;;;;29.10;16.10;;;5.60;99.90;;;;;;4972845;28;20362;-73
2023/04/08 09:37:56;;;;;;;23.98;14.57;;;5.60;99.90;;;;;;4972035;28;20102;-75
2023/04/08 09:40:24;;;;;;;21.27;13.50;;;5.80;99.90;;;;;;4972124;28;20489;-74
2023/04/08 09:42:52;;;;;;;21.15;12.32;;;5.80;99.90;;;;;;4972063;28;20089;-74
2023/04/08 09:45:18;;;;;;;18.88;13.13;;;5.70;99.90;;;;;;4970701;28;20030;-76
2023/04/08 09:47:59;;;;;;;20.83;12.07;;;5.60;99.90;;;;;;4971913;28;20023;-76
2023/04/08 09:50:35;;;;;;;19.17;12.88;;;5.50;99.90;;;;;;4972022;28;20073;-75
2023/04/08 09:53:29;;;;;;;20.48;13.48;;;5.70;99.90;;;;;;4980720;28;20113;-75
2023/04/08 09:55:56;;;;;;;20.65;12.38;;;5.80;99.90;;;;;;4969034;28;20031;-76
2023/04/08 09:58:28;;;;;;;20.65;13.52;;;5.90;99.90;;;;;;4971464;28;20038;-76
2023/04/08 10:00:54;;;;;;;23.88;13.32;;;6.10;99.90;;;;;;4973204;28;20027;-75
2023/04/08 10:03:28;;;;;;;19.60;12.27;;;6.10;99.90;;;;;;4971365;28;20033;-75
2023/04/08 10:05:55;;;;;;;20.25;12.82;;;6.10;99.90;;;;;;4971921;28;20070;-74
2023/04/08 10:08:25;;;;;;;20.88;13.73;;;6.20;99.90;;;;;;4972928;28;20019;-76
2023/04/08 10:10:52;;;;;;;24.02;13.15;;;6.40;99.90;;;;;;4972817;28;20102;-76
2023/04/08 10:13:19;;;;;;;20.27;12.73;;;6.40;96.60;;;;;;4972795;28;20042;-76
2023/04/08 10:15:46;;;;;;;23.13;12.93;;;6.40;93.90;;;;;;4971252;28;20473;-76
2023/04/08 10:18:17;;;;;;;21.15;12.98;;;6.60;95.50;;;;;;4954880;28;20022;-76
2023/04/08 10:20:44;;;;;;;19.95;13.13;;;6.70;95.20;;;;;;4972173;28;20050;-76
2023/04/08 10:23:13;;;;;;;19.70;13.20;;;6.60;93.50;;;;;;4974197;28;20106;-76
2023/04/08 10:25:44;;;;;;;22.83;13.13;;;6.50;94.90;;;;;;4975658;28;20118;-76
2023/04/08 10:28:18;;;;;;;19.02;11.90;;;6.60;96.80;;;;;;4959156;28;20027;-76
2023/04/08 10:30:45;;;;;;;21.85;12.48;;;6.60;92.60;;;;;;4975856;28;20038;-74
2023/04/08 10:33:37;;;;;;;18.98;11.88;;;6.50;91.00;;;;;;4974397;28;20034;-75
2023/04/08 10:36:06;;;;;;;16.85;10.73;;;6.50;91.00;;;;;;4971269;28;20068;-74
2023/04/08 10:38:32;;;;;;;22.13;13.30;;;6.40;91.20;;;;;;4975846;28;20401;-74
2023/04/08 10:40:57;;;;;;;23.13;13.90;;;6.40;92.80;;;;;;4976083;28;20027;-74
2023/04/08 10:43:23;;;;;;;20.83;12.80;;;6.50;95.30;;;;;;4975768;28;20050;-74
2023/04/08 10:45:52;;;;;;;22.52;12.38;;;6.40;92.60;;;;;;4974646;28;20118;-75
2023/04/08 10:48:23;;;;;;;20.33;13.07;;;6.20;91.60;;;;;;4974171;28;20030;-74
2023/04/08 10:51:05;;;;;;;21.95;13.50;;;6.20;93.80;;;;;;4958271;28;20065;-75
2023/04/08 10:53:35;;;;;;;21.92;14.07;;;6.20;94.90;;;;;;4975677;28;20070;-74
2023/04/08 10:56:24;;;;;;;24.33;14.35;;;6.20;96.70;;;;;;4974277;28;20062;-75
2023/04/08 10:58:57;;;;;;;21.40;13.25;;;6.20;94.40;;;;;;4958575;28;20397;-75
2023/04/08 11:01:24;;;;;;;24.27;13.82;;;6.20;95.40;;;;;;4975009;28;20043;-75
2023/04/08 11:03:50;;;;;;;22.40;14.40;;;6.00;96.60;;;;;;4957554;28;20374;-74
2023/04/08 11:06:16;;;;;;;23.88;14.25;;;6.00;98.80;;;;;;4975633;28;20441;-75
2023/04/08 11:08:43;;;;;;;20.83;12.93;;;6.00;99.90;;;;;;4957956;28;20033;-74
2023/04/08 11:11:10;;;;;;;22.25;14.23;;;6.00;99.90;;;;;;4958214;28;20062;-74
2023/04/08 11:13:38;;;;;;;22.75;14.18;;;6.20;99.90;;;;;;4957876;28;20045;-74
2023/04/08 11:16:05;;;;;;;21.65;14.27;;;6.20;99.90;;;;;;4975092;28;20073;-74
2023/04/08 11:18:32;;;;;;;24.13;14.77;;;6.10;99.90;;;;;;4973639;28;20027;-75
2023/04/08 11:21:00;;;;;;;23.20;14.25;;;6.20;99.90;;;;;;4973891;28;20082;-75
2023/04/08 11:23:26;;;;;;;21.45;13.95;;;6.20;99.90;;;;;;4973877;28;20027;-75
2023/04/08 11:25:52;;;;;;;23.92;15.07;;;6.20;99.90;;;;;;4957703;28;20038;-75
2023/04/08 11:28:18;;;;;;;25.33;13.98;;;6.30;99.90;;;;;;4975113;28;20497;-76
2023/04/08 11:30:44;;;;;;;25.48;15.02;;;6.20;99.90;;;;;;4974860;28;20043;-75
2023/04/08 11:33:12;;;;;;;21.92;13.18;;;6.30;99.90;;;;;;4974598;28;20041;-75
2023/04/08 11:35:43;;;;;;;23.20;13.95;;;6.40;99.90;;;;;;4957435;28;20031;-75
2023/04/08 11:38:10;;;;;;;22.65;14.13;;;6.30;98.20;;;;;;4957894;28;20492;-75
2023/04/08 11:40:36;;;;;;;21.83;14.30;;;6.20;98.90;;;;;;4957304;28;20031;-75
2023/04/08 11:43:14;;;;;;;21.20;13.90;;;6.30;99.90;;;;;;4957734;28;20073;-75
2023/04/08 11:45:40;;;;;;;22.17;14.07;;;6.20;99.90;;;;;;4957213;28;20408;-76
2023/04/08 11:48:14;;;;;;;22.38;13.27;;;6.10;99.90;;;;;;4974531;28;20031;-75
2023/04/08 11:50:40;;;;;;;23.08;13.68;;;6.20;99.90;;;;;;4974524;28;20030;-75
2023/04/08 11:53:20;;;;;;;26.88;15.40;;;6.00;99.90;;;;;;4957629;28;20069;-75
2023/04/08 11:55:47;;;;;;;24.63;14.18;;;6.00;99.90;;;;;;4956971;28;20034;-76
2023/04/08 11:58:13;;;;;;;22.52;14.00;;;5.90;99.90;;;;;;4957452;28;20052;-76
2023/04/08 12:00:38;;;;;;;25.35;12.45;;;5.90;99.90;;;;;;4974333;28;20039;-76
2023/04/08 12:03:05;;;;;;;29.77;18.60;;;5.70;99.90;;;;;;4974352;28;20027;-76
2023/04/08 12:05:31;;;;;;;29.13;17.10;;;5.60;99.90;;;;;;4974326;28;20066;-75
2023/04/08 12:07:56;;;;;;;27.55;16.13;;;5.60;99.90;;;;;;4958743;28;20106;-74
2023/04/08 12:10:24;;;;;;;27.25;15.55;;;5.70;99.90;;;;;;4976917;28;20039;-74
2023/04/08 12:12:49;;;;;;;28.30;16.77;;;5.50;99.90;;;;;;4956724;28;20057;-74
2023/04/08 12:15:16;;;;;;;26.95;15.90;;;5.50;99.90;;;;;;4973811;28;20039;-74
2023/04/08 12:17:42;;;;;;;28.52;17.15;;;5.50;99.90;;;;;;4971727;28;20023;-74
2023/04/08 12:20:09;;;;;;;28.15;15.95;;;5.50;99.90;;;;;;4973050;28;20106;-76
2023/04/08 12:22:35;;;;;;;30.50;18.83;;;5.50;99.90;;;;;;4973479;28;20068;-75
2023/04/08 12:25:02;;;;;;;26.48;15.65;;;5.50;99.90;;;;;;4975785;28;20078;-75
2023/04/08 12:27:28;;;;;;;29.90;16.90;;;5.70;99.90;;;;;;4973616;28;20118;-74
2023/04/08 12:29:54;;;;;;;27.98;17.00;;;5.60;99.90;;;;;;4974443;28;20480;-74
2023/04/08 12:32:20;;;;;;;31.95;15.65;;;5.70;99.90;;;;;;4972340;28;20045;-75
2023/04/08 12:34:46;;;;;;;32.13;17.70;;;5.60;99.90;;;;;;4974204;28;20027;-76
2023/04/08 12:37:12;;;;;;;33.20;18.42;;;5.60;99.90;;;;;;4972880;28;20507;-75